Time;durP1;ratioP1;P1;durP2;ratioP2;P2;SDS_P1;SDS_P2;PMS_P1;PMS_P2;Temp;Humidity;BMP_temperature;BMP_pressure;BME280_temperature;BME280_humidity;BME280_pressure;Samples;Min_cycle;Max_cycle;Signal;HPM_P1;HPM_P2
2022/09/06 00:00:26;;;;;;;7.05;3.40;;;;;;;21.13;81.17;101440.72;5075185;28;20090;-56
2022/09/06 00:02:54;;;;;;;7.18;3.40;;;;;;;21.19;81.15;101448.56;5075334;28;20086;-54
2022/09/06 00:05:21;;;;;;;5.35;2.90;;;;;;;21.18;80.67;101440.56;5075203;28;20479;-56
2022/09/06 00:07:49;;;;;;;7.72;4.00;;;;;;;21.23;81.46;101432.88;5068179;28;20494;-52
2022/09/06 00:10:17;;;;;;;5.10;2.78;;;;;;;21.19;81.12;101429.16;5069779;28;20517;-53
2022/09/06 00:12:45;;;;;;;4.88;2.92;;;;;;;21.24;80.73;101420.69;5064126;28;20037;-50
2022/09/06 00:15:13;;;;;;;6.53;3.17;;;;;;;21.25;80.75;101413.97;5069668;28;20041;-53
2022/09/06 00:17:43;;;;;;;6.07;2.90;;;;;;;21.15;81.62;101413.50;5054055;28;20464;-54
2022/09/06 00:20:11;;;;;;;5.57;3.13;;;;;;;21.15;81.46;101416.28;5073506;28;20041;-53
2022/09/06 00:22:39;;;;;;;7.57;3.20;;;;;;;21.21;81.74;101424.09;5074831;28;20494;-51
2022/09/06 00:25:07;;;;;;;4.03;2.85;;;;;;;21.32;80.69;101440.41;5072917;28;20482;-51
2022/09/06 00:27:35;;;;;;;4.00;2.65;;;;;;;21.42;79.84;101451.19;5073606;28;20045;-52
2022/09/06 00:30:03;;;;;;;4.68;2.83;;;;;;;21.58;78.81;101482.03;5074438;28;20049;-49
2022/09/06 00:32:31;;;;;;;4.07;2.13;;;;;;;21.70;77.18;101505.19;5063419;28;20052;-50
2022/09/06 00:34:59;;;;;;;6.45;3.10;;;;;;;21.80;78.14;101544.84;5074570;28;20045;-54
2022/09/06 00:37:27;;;;;;;7.78;3.25;;;;;;;21.79;79.08;101587.56;5069920;28;20138;-56
2022/09/06 00:39:54;;;;;;;5.40;3.17;;;;;;;21.77;78.64;101610.09;5067537;28;20048;-54
2022/09/06 00:42:22;;;;;;;5.65;3.40;;;;;;;21.73;79.96;101600.00;5074269;28;20089;-56
2022/09/06 00:44:50;;;;;;;5.63;3.50;;;;;;;21.66;79.90;101604.03;5073399;28;20051;-56
2022/09/06 00:47:18;;;;;;;9.38;3.53;;;;;;;21.60;81.63;101624.78;5074408;28;20037;-52
2022/09/06 00:49:49;;;;;;;5.18;3.13;;;;;;;21.58;80.44;101607.63;5061530;28;20056;-54
2022/09/06 00:52:18;;;;;;;3.53;2.55;;;;;;;21.61;79.46;101593.09;5068930;28;20402;-51
2022/09/06 00:54:47;;;;;;;8.07;3.00;;;;;;;21.57;80.81;101580.22;5056369;28;20049;-51
2022/09/06 00:57:16;;;;;;;4.35;2.83;;;;;;;21.57;80.57;101578.25;5074436;28;20098;-51
2022/09/06 00:59:44;;;;;;;5.07;2.80;;;;;;;21.59;79.92;101577.94;5060349;28;20049;-52
2022/09/06 01:02:12;;;;;;;6.78;3.25;;;;;;;21.60;80.07;101580.41;5062706;28;20048;-51
2022/09/06 01:04:42;;;;;;;5.95;3.50;;;;;;;21.57;79.72;101572.69;5069148;28;20052;-56
2022/09/06 01:07:31;;;;;;;4.55;3.25;;;;;;;21.52;79.98;101575.63;5072663;28;20048;-51
2022/09/06 01:10:17;;;;;;;5.25;2.92;;;;;;;21.54;79.51;101575.31;5067851;28;20053;-53
2022/09/06 01:13:11;;;;;;;4.95;3.22;;;;;;;21.58;79.94;101579.09;5073381;28;20045;-54
2022/09/06 01:16:11;;;;;;;8.68;3.20;;;;;;;21.58;79.88;101557.72;5058877;28;20044;-55
2022/09/06 01:18:48;;;;;;;5.65;3.22;;;;;;;21.46;80.59;101541.72;5062092;28;20041;-53
2022/09/06 01:21:49;;;;;;;5.88;3.00;;;;;;;21.43;80.52;101549.84;5058493;28;20057;-54
2022/09/06 01:25:01;;;;;;;3.70;2.80;;;;;;;21.50;80.94;101552.97;5063746;28;20060;-53
2022/09/06 01:27:50;;;;;;;5.57;3.00;;;;;;;21.53;81.44;101540.41;5070110;28;20052;-56
2022/09/06 01:30:19;;;;;;;4.15;3.33;;;;;;;21.42;82.22;101539.91;5055560;28;20052;-53
2022/09/06 01:32:55;;;;;;;4.97;3.03;;;;;;;21.40;82.18;101533.88;5063248;28;20052;-54
2022/09/06 01:35:31;;;;;;;8.15;3.70;;;;;;;21.34;82.10;101516.56;5070173;28;20067;-54
2022/09/06 01:38:00;;;;;;;5.45;3.13;;;;;;;21.25;83.19;101513.75;5072648;28;20048;-56
2022/09/06 01:40:28;;;;;;;6.57;3.60;;;;;;;21.24;83.46;101495.50;5056192;28;20052;-54
2022/09/06 01:42:57;;;;;;;7.05;3.50;;;;;;;21.12;85.00;101492.56;5059903;28;20041;-57
2022/09/06 01:45:42;;;;;;;7.53;3.88;;;;;;;20.97;86.03;101468.06;5072220;28;20562;-53
2022/09/06 01:48:29;;;;;;;4.63;2.80;;;;;;;20.88;85.84;101464.44;5068315;28;20433;-52
2022/09/06 01:51:17;;;;;;;8.35;4.10;;;;;;;20.86;87.42;101445.41;5071419;28;20060;-55
2022/09/06 01:54:08;;;;;;;6.78;4.15;;;;;;;20.79;87.90;101423.72;5054353;28;20051;-51
2022/09/06 01:57:02;;;;;;;4.68;3.47;;;;;;;20.80;88.57;101394.88;5060699;28;20044;-55
2022/09/06 02:00:04;;;;;;;8.65;3.83;;;;;;;20.84;88.49;101376.47;5057560;28;20051;-53
2022/09/06 02:03:01;;;;;;;6.47;3.55;;;;;;;20.82;87.59;101350.22;5068575;28;20045;-52
2022/09/06 02:05:29;;;;;;;5.63;3.50;;;;;;;20.85;86.50;101336.56;5072780;28;20053;-52
2022/09/06 02:08:07;;;;;;;5.03;2.85;;;;;;;20.83;86.15;101333.31;5074176;28;20059;-53
2022/09/06 02:10:42;;;;;;;5.90;3.83;;;;;;;20.76;85.76;101327.44;5071669;28;20036;-52
2022/09/06 02:13:12;;;;;;;4.95;3.05;;;;;;;20.73;86.18;101328.06;5071891;28;20044;-56
2022/09/06 02:15:49;;;;;;;8.45;4.40;;;;;;;20.74;85.71;101328.91;5055149;28;20037;-54
2022/09/06 02:18:39;;;;;;;6.43;3.95;;;;;;;20.70;86.28;101328.72;5066139;28;20044;-53
2022/09/06 02:21:09;;;;;;;6.78;4.07;;;;;;;20.58;86.81;101328.53;5072059;28;20060;-52
2022/09/06 02:23:39;;;;;;;6.20;4.03;;;;;;;20.54;87.18;101324.75;5069503;28;20060;-54
2022/09/06 02:26:11;;;;;;;8.98;3.90;;;;;;;20.53;86.25;101325.91;5072766;28;20387;-55
2022/09/06 02:28:39;;;;;;;8.05;4.07;;;;;;;20.55;86.15;101331.94;5064289;28;20503;-54
2022/09/06 02:31:24;;;;;;;8.15;3.80;;;;;;;20.54;86.34;101338.59;5063162;28;20499;-56
2022/09/06 02:33:52;;;;;;;7.03;4.22;;;;;;;20.50;86.36;101338.44;5056624;28;20056;-52
2022/09/06 02:36:20;;;;;;;8.05;4.40;;;;;;;20.45;86.58;101340.56;5053306;28;20078;-54
2022/09/06 02:38:48;;;;;;;6.57;3.47;;;;;;;20.46;86.85;101331.09;5071603;28;20059;-57
2022/09/06 02:41:19;;;;;;;6.70;4.32;;;;;;;20.47;86.20;101327.19;5072254;28;20513;-52
2022/09/06 02:43:47;;;;;;;5.38;3.30;;;;;;;20.38;86.59;101339.06;5073721;28;20560;-54
2022/09/06 02:46:15;;;;;;;5.35;3.22;;;;;;;20.49;86.43;101341.53;5071657;28;20049;-52
2022/09/06 02:48:43;;;;;;;6.55;3.63;;;;;;;20.62;85.91;101369.13;5066716;28;20522;-53
2022/09/06 02:51:10;;;;;;;6.65;3.63;;;;;;;20.73;85.07;101380.69;5075434;28;20398;-55
2022/09/06 02:53:38;;;;;;;7.38;4.40;;;;;;;20.80;84.80;101392.09;5069578;28;20039;-55
2022/09/06 02:56:06;;;;;;;7.20;3.47;;;;;;;20.84;84.27;101395.84;5075433;28;20040;-53
2022/09/06 02:58:34;;;;;;;8.40;3.58;;;;;;;20.90;83.09;101377.16;5070556;28;20055;-54
2022/09/06 03:01:02;;;;;;;8.90;3.70;;;;;;;20.91;83.71;101375.19;5044375;28;20036;-54
2022/09/06 03:03:29;;;;;;;6.55;3.83;;;;;;;20.91;84.03;101364.09;5066164;28;20041;-55
2022/09/06 03:05:57;;;;;;;6.78;3.28;;;;;;;20.92;83.79;101374.03;5071947;28;20067;-56
2022/09/06 03:08:25;;;;;;;6.95;3.88;;;;;;;20.91;84.16;101375.19;5073476;28;20041;-55
2022/09/06 03:10:55;;;;;;;7.07;3.78;;;;;;;20.89;84.42;101369.16;5074645;28;20093;-56
2022/09/06 03:13:23;;;;;;;6.38;4.10;;;;;;;20.91;84.03;101353.03;5064417;28;20067;-56
2022/09/06 03:15:53;;;;;;;7.22;4.20;;;;;;;20.91;83.53;101353.03;5065255;28;20052;-53
2022/09/06 03:18:21;;;;;;;10.88;4.22;;;;;;;20.84;84.09;101354.31;5057045;28;20098;-53
2022/09/06 03:20:53;;;;;;;8.10;3.65;;;;;;;20.84;84.06;101359.03;5068494;28;20052;-52
2022/09/06 03:23:22;;;;;;;9.13;4.28;;;;;;;20.83;84.61;101357.44;5069903;28;20041;-53
2022/09/06 03:25:51;;;;;;;7.22;3.92;;;;;;;20.82;84.82;101364.91;5064637;28;20514;-54
2022/09/06 03:28:19;;;;;;;6.53;4.05;;;;;;;20.80;85.17;101371.91;5074417;28;20043;-56
2022/09/06 03:30:49;;;;;;;7.38;4.43;;;;;;;20.75;85.23;101372.06;5067238;28;20036;-54
2022/09/06 03:33:18;;;;;;;9.13;4.53;;;;;;;20.63;86.11;101369.91;5061775;28;20044;-58
2022/09/06 03:35:51;;;;;;;7.85;4.40;;;;;;;20.55;86.90;101365.16;5074595;28;20047;-54
2022/09/06 03:38:19;;;;;;;8.77;4.45;;;;;;;20.51;87.31;101364.16;5065085;28;20045;-53
2022/09/06 03:40:48;;;;;;;8.60;4.40;;;;;;;20.46;87.87;101364.31;5066223;28;20052;-59
2022/09/06 03:43:17;;;;;;;9.10;4.97;;;;;;;20.37;88.87;101356.81;5075635;28;20047;-55
2022/09/06 03:45:47;;;;;;;5.40;4.05;;;;;;;20.34;89.28;101356.63;5075503;28;20040;-57
2022/09/06 03:48:16;;;;;;;5.78;3.97;;;;;;;20.35;89.27;101359.09;5075629;28;20036;-56
2022/09/06 03:50:45;;;;;;;7.82;4.18;;;;;;;20.43;89.16;101363.00;5066723;28;20097;-54
2022/09/06 03:53:14;;;;;;;6.45;3.70;;;;;;;20.51;88.55;101369.69;5067268;28;20033;-55
2022/09/06 03:55:51;;;;;;;7.07;4.45;;;;;;;20.57;88.20;101371.22;5063089;28;20063;-55
2022/09/06 03:58:20;;;;;;;6.97;4.35;;;;;;;20.58;87.79;101368.13;5074794;28;20045;-55
2022/09/06 04:00:48;;;;;;;7.20;4.07;;;;;;;20.58;87.75;101362.56;5068793;28;20069;-57
2022/09/06 04:03:18;;;;;;;7.95;4.60;;;;;;;20.59;87.34;101366.19;5055652;28;20402;-54
2022/09/06 04:05:46;;;;;;;8.48;4.03;;;;;;;;;;5063265;28;20114;-54
2022/09/06 04:08:13;;;;;;;6.75;4.47;;;;;;;20.56;87.48;101364.03;5074042;28;20037;-54
2022/09/06 04:10:41;;;;;;;7.03;4.40;;;;;;;20.55;87.48;101362.38;5069765;28;20045;-53
2022/09/06 04:13:09;;;;;;;7.80;4.53;;;;;;;20.56;87.65;101369.56;5062565;28;20041;-52
2022/09/06 04:15:37;;;;;;;8.38;4.90;;;;;;;20.56;87.74;101364.03;5075545;28;20402;-52
2022/09/06 04:18:04;;;;;;;7.97;4.75;;;;;;;20.56;87.26;101355.72;5077531;28;20086;-54
2022/09/06 04:20:35;;;;;;;7.32;4.68;;;;;;;20.54;87.20;101360.75;5072361;28;20051;-54
2022/09/06 04:23:03;;;;;;;6.32;4.18;;;;;;;20.55;87.12;101362.38;5070505;28;20067;-54
2022/09/06 04:25:31;;;;;;;7.25;4.30;;;;;;;20.55;86.91;101356.84;5068779;28;20085;-52
2022/09/06 04:27:58;;;;;;;7.90;5.10;;;;;;;20.55;86.70;101356.84;5060589;28;20044;-53
2022/09/06 04:30:26;;;;;;;10.52;5.50;;;;;;;20.54;86.25;101357.97;5073632;28;20036;-54
2022/09/06 04:32:54;;;;;;;9.18;4.28;;;;;;;20.54;86.01;101363.50;5062663;28;20041;-57
2022/09/06 04:35:22;;;;;;;5.93;3.92;;;;;;;20.55;85.93;101367.94;5045395;28;20486;-52
2022/09/06 04:37:49;;;;;;;7.20;4.00;;;;;;;20.55;85.92;101370.69;5074262;28;20075;-57
2022/09/06 04:40:17;;;;;;;5.45;3.72;;;;;;;20.59;84.72;101380.03;5070037;28;20044;-56
2022/09/06 04:42:45;;;;;;;8.27;4.20;;;;;;;20.61;83.45;101383.25;5068126;28;20101;-52
2022/09/06 04:45:12;;;;;;;4.88;3.60;;;;;;;20.60;83.03;101382.47;5074108;28;20529;-54
2022/09/06 04:47:40;;;;;;;7.80;4.28;;;;;;;20.56;84.16;101380.66;5074364;28;20495;-54
2022/09/06 04:50:08;;;;;;;8.63;4.35;;;;;;;20.54;84.06;101382.88;5065382;28;20044;-51
2022/09/06 04:52:36;;;;;;;7.78;4.82;;;;;;;20.51;84.26;101384.34;5059348;28;20043;-52
2022/09/06 04:55:04;;;;;;;8.30;4.43;;;;;;;20.51;83.87;101391.84;5074267;28;20410;-53
2022/09/06 04:57:31;;;;;;;7.40;3.78;;;;;;;20.51;83.13;101378.00;5073030;28;20486;-54
2022/09/06 04:59:59;;;;;;;6.43;4.07;;;;;;;20.50;83.62;101379.16;5071694;28;20052;-54
2022/09/06 05:02:27;;;;;;;8.02;4.38;;;;;;;20.49;83.87;101386.63;5062361;28;20044;-55
2022/09/06 05:04:55;;;;;;;8.48;4.57;;;;;;;20.42;84.74;101381.59;5069727;28;20053;-56
2022/09/06 05:07:23;;;;;;;8.77;4.43;;;;;;;20.42;84.14;101386.31;5074496;28;20048;-53
2022/09/06 05:09:51;;;;;;;8.50;4.68;;;;;;;20.43;83.01;101388.72;5068951;28;20091;-57
2022/09/06 05:12:18;;;;;;;10.70;4.63;;;;;;;20.42;84.09;101389.06;5067272;28;20093;-56
2022/09/06 05:14:46;;;;;;;8.00;4.90;;;;;;;20.38;84.01;101386.13;5065544;28;20106;-53
2022/09/06 05:17:14;;;;;;;11.82;4.40;;;;;;;20.38;84.14;101391.66;5058021;28;20045;-53
2022/09/06 05:19:42;;;;;;;8.95;4.32;;;;;;;20.39;83.08;101396.03;5075452;28;20048;-52
2022/09/06 05:22:11;;;;;;;6.80;3.75;;;;;;;20.43;82.16;101405.34;5068813;28;20067;-55
2022/09/06 05:24:38;;;;;;;8.27;4.63;;;;;;;20.45;82.31;101398.69;5066337;28;20052;-54
2022/09/06 05:27:06;;;;;;;6.82;4.57;;;;;;;20.40;82.99;101400.47;5060481;28;20040;-56
2022/09/06 05:29:34;;;;;;;9.35;4.95;;;;;;;20.37;83.69;101406.63;5068522;28;20044;-55
2022/09/06 05:32:01;;;;;;;9.20;5.50;;;;;;;20.34;84.11;101404.50;5064052;28;20411;-55
2022/09/06 05:34:29;;;;;;;8.40;4.97;;;;;;;20.31;84.50;101396.84;5073680;28;20052;-56
2022/09/06 05:36:57;;;;;;;11.02;6.20;;;;;;;20.29;85.14;101403.84;5074275;28;20494;-53
2022/09/06 05:39:25;;;;;;;12.02;5.35;;;;;;;20.27;85.14;101409.66;5071648;28;20048;-54
2022/09/06 05:41:52;;;;;;;15.55;5.30;;;;;;;20.29;84.68;101410.16;5074611;28;20048;-57
2022/09/06 05:44:20;;;;;;;10.65;5.60;;;;;;;20.27;84.93;101411.63;5074437;28;20048;-53
2022/09/06 05:46:48;;;;;;;11.10;5.50;;;;;;;20.26;85.02;101416.34;5066946;28;20045;-56
2022/09/06 05:49:15;;;;;;;12.68;5.90;;;;;;;20.26;85.09;101424.66;5065847;28;20041;-53
2022/09/06 05:51:43;;;;;;;12.35;5.90;;;;;;;20.26;85.34;101421.88;5071510;28;20040;-56
2022/09/06 05:54:11;;;;;;;11.23;6.47;;;;;;;20.26;85.17;101416.34;5071994;28;20044;-53
2022/09/06 05:56:39;;;;;;;11.27;6.43;;;;;;;20.24;85.21;101415.03;5073011;28;20052;-55
2022/09/06 05:59:06;;;;;;;13.38;6.57;;;;;;;20.23;85.14;101411.47;5072761;28;20165;-52
2022/09/06 06:01:34;;;;;;;9.73;5.65;;;;;;;20.23;85.06;101422.53;5071172;28;20051;-52
2022/09/06 06:04:06;;;;;;;10.57;5.97;;;;;;;20.26;84.93;101421.88;5072161;28;20392;-52
2022/09/06 06:06:34;;;;;;;12.20;6.22;;;;;;;20.29;84.61;101421.25;5069107;28;20414;-53
2022/09/06 06:09:02;;;;;;;10.35;6.13;;;;;;;20.30;84.57;101424.81;5068126;28;20425;-51
2022/09/06 06:11:30;;;;;;;12.82;6.13;;;;;;;20.30;84.31;101422.88;5059478;28;20444;-49
2022/09/06 06:13:58;;;;;;;9.77;6.22;;;;;;;20.33;84.15;101427.78;5058376;28;20056;-49
2022/09/06 06:16:25;;;;;;;13.05;7.00;;;;;;;20.34;84.32;101421.09;4716388;28;10000445;-49
2022/09/06 06:18:53;;;;;;;12.60;6.93;;;;;;;20.36;84.11;101427.13;5069379;28;20053;-50
2022/09/06 06:21:25;;;;;;;10.65;6.88;;;;;;;20.34;84.43;101423.88;5069208;28;20044;-51
2022/09/06 06:23:55;;;;;;;11.95;6.40;;;;;;;20.35;84.38;101421.94;5071022;28;20502;-53
2022/09/06 06:26:24;;;;;;;10.75;6.88;;;;;;;20.33;84.57;101419.47;5073599;28;20039;-55
2022/09/06 06:28:52;;;;;;;12.55;6.50;;;;;;;20.35;84.41;101424.72;5073255;28;20413;-54
2022/09/06 06:31:21;;;;;;;13.18;7.40;;;;;;;20.37;84.47;101422.41;5068256;28;20379;-53
2022/09/06 06:33:49;;;;;;;8.70;6.55;;;;;;;20.36;84.93;101426.31;5064642;28;20040;-55
2022/09/06 06:36:17;;;;;;;17.58;7.35;;;;;;;20.38;84.37;101422.09;5071761;28;20086;-53
2022/09/06 06:38:45;;;;;;;12.05;7.25;;;;;;;20.37;84.24;101426.00;5071743;28;20121;-51
2022/09/06 06:41:16;;;;;;;13.65;7.53;;;;;;;20.38;84.00;101419.34;5060550;28;20510;-55
2022/09/06 06:43:44;;;;;;;12.52;7.20;;;;;;;20.38;83.84;101416.56;5068522;28;20053;-54
2022/09/06 06:46:16;;;;;;;10.05;6.20;;;;;;;20.41;83.58;101407.59;5066374;28;20048;-54
2022/09/06 06:48:45;;;;;;;9.52;6.10;;;;;;;20.47;83.10;101404.69;5062032;28;20033;-53
2022/09/06 06:51:15;;;;;;;22.95;17.90;;;;;;;20.50;82.85;101398.53;5067829;28;20055;-53
2022/09/06 06:53:46;;;;;;;12.13;6.15;;;;;;;20.56;82.24;101402.81;5070481;28;20048;-52
2022/09/06 06:56:19;;;;;;;13.18;6.18;;;;;;;20.56;82.02;101397.25;5045773;28;20053;-52
2022/09/06 06:58:49;;;;;;;10.18;6.32;;;;;;;20.58;82.26;101406.06;5067765;28;20056;-52
2022/09/06 07:01:19;;;;;;;9.77;6.82;;;;;;;20.55;82.56;101402.00;5062065;28;20397;-51
2022/09/06 07:03:47;;;;;;;13.00;7.03;;;;;;;20.54;82.85;101405.03;5066895;28;20379;-50
2022/09/06 07:06:15;;;;;;;9.13;5.72;;;;;;;;;;5061338;28;20043;-53
2022/09/06 07:08:43;;;;;;;14.63;7.22;;;;;;;;;;5070033;28;20049;-54
2022/09/06 07:11:11;;;;;;;13.75;7.50;;;;;;;;;;5057806;28;20150;-49
2022/09/06 07:13:39;;;;;;;11.85;7.00;;;;;;;20.58;82.63;101400.53;5060203;28;20037;-55
2022/09/06 07:16:14;;;;;;;11.52;7.05;;;;;;;20.58;82.76;101400.53;5063623;28;20049;-50
2022/09/06 07:18:44;;;;;;;11.30;6.53;;;;;;;20.59;82.90;101396.66;5059272;28;20049;-53
2022/09/06 07:21:27;;;;;;;10.48;6.70;;;;;;;20.61;82.86;101394.34;5057407;28;20048;-51
2022/09/06 07:24:04;;;;;;;10.93;6.57;;;;;;;20.65;82.83;101392.56;5066831;28;20085;-51
2022/09/06 07:26:34;;;;;;;13.40;6.65;;;;;;;20.67;82.83;101393.06;5065209;28;20285;-52
2022/09/06 07:29:03;;;;;;;9.57;5.88;;;;;;;20.68;82.98;101391.91;5054957;28;20503;-52
2022/09/06 07:31:31;;;;;;;11.55;6.50;;;;;;;20.71;82.71;101399.59;5069900;28;20585;-56
2022/09/06 07:34:19;;;;;;;15.32;7.88;;;;;;;20.72;82.89;101392.91;5065260;28;20077;-56
2022/09/06 07:36:47;;;;;;;11.38;7.50;;;;;;;20.70;83.39;101392.41;5071748;28;20089;-55
2022/09/06 07:39:15;;;;;;;11.50;6.40;;;;;;;20.70;83.10;101391.59;5060228;28;20049;-54
2022/09/06 07:41:43;;;;;;;13.68;7.10;;;;;;;20.73;83.26;101396.50;5060772;28;20053;-54
2022/09/06 07:44:10;;;;;;;9.90;7.00;;;;;;;20.73;83.25;101394.53;5069898;28;20052;-54
2022/09/06 07:46:38;;;;;;;13.80;7.65;;;;;;;20.73;83.08;101391.75;5066088;28;20056;-53
2022/09/06 07:49:06;;;;;;;15.57;6.88;;;;;;;20.74;82.72;101387.88;5070350;28;20050;-55
2022/09/06 07:51:34;;;;;;;9.13;5.82;;;;;;;20.79;82.00;101396.03;5066442;28;20059;-54
2022/09/06 07:54:01;;;;;;;9.75;5.78;;;;;;;20.83;81.48;101397.00;5068221;28;20066;-56
2022/09/06 07:56:49;;;;;;;11.50;6.18;;;;;;;20.87;80.63;101391.63;5072981;28;20113;-56
2022/09/06 07:59:17;;;;;;;13.02;6.28;;;;;;;20.91;80.40;101389.03;5064896;28;20438;-52
2022/09/06 08:01:46;;;;;;;10.25;6.50;;;;;;;20.92;80.59;101393.44;5068574;28;20449;-55
2022/09/06 08:04:14;;;;;;;9.80;6.15;;;;;;;20.93;80.69;101384.00;5071431;28;20056;-57
2022/09/06 08:06:46;;;;;;;11.18;6.20;;;;;;;20.98;80.53;101389.38;5070119;28;20510;-54
2022/09/06 08:09:35;;;;;;;9.55;6.10;;;;;;;21.00;80.62;101384.31;5071430;28;20058;-54
2022/09/06 08:12:05;;;;;;;11.25;5.63;;;;;;;21.01;80.20;101377.63;5040031;28;20494;-54
2022/09/06 08:14:34;;;;;;;13.57;6.28;;;;;;;21.04;80.20;101374.19;5070981;28;20053;-55
2022/09/06 08:17:02;;;;;;;10.02;6.00;;;;;;;21.05;79.76;101375.84;5074753;28;20428;-56
2022/09/06 08:19:30;;;;;;;18.00;6.05;;;;;;;21.08;79.41;101377.16;5062452;28;20036;-53
2022/09/06 08:21:57;;;;;;;9.93;5.50;;;;;;;21.12;79.31;101375.34;5057383;28;20033;-54
2022/09/06 08:24:25;;;;;;;9.30;5.50;;;;;;;21.16;78.34;101382.66;5062038;28;20032;-52
2022/09/06 08:26:53;;;;;;;7.07;4.30;;;;;;;21.21;77.64;101365.91;5060843;28;20041;-56
2022/09/06 08:29:21;;;;;;;7.30;5.10;;;;;;;21.26;77.51;101362.97;5064090;28;20052;-54
2022/09/06 08:31:48;;;;;;;10.57;5.15;;;;;;;21.29;76.75;101369.81;5060571;28;20083;-55
2022/09/06 08:34:16;;;;;;;10.27;5.13;;;;;;;21.30;76.43;101371.44;5071008;28;20036;-57
2022/09/06 08:36:44;;;;;;;9.45;4.97;;;;;;;21.32;75.48;101373.88;5069878;28;20052;-54
2022/09/06 08:39:12;;;;;;;9.05;5.20;;;;;;;21.33;75.78;101369.94;5068775;28;20406;-57
2022/09/06 08:41:50;;;;;;;9.68;4.95;;;;;;;21.36;75.81;101372.06;5060381;28;20044;-55
2022/09/06 08:44:40;;;;;;;10.85;4.70;;;;;;;21.42;75.14;101370.78;5071802;28;20074;-55
2022/09/06 08:47:24;;;;;;;8.50;4.85;;;;;;;21.46;75.60;101369.00;5039048;28;20359;-51
2022/09/06 08:50:01;;;;;;;10.98;5.70;;;;;;;21.47;75.46;101359.53;5056981;28;20068;-54
2022/09/06 08:52:47;;;;;;;11.02;5.82;;;;;;;21.48;75.61;101355.63;5064181;28;20502;-55
2022/09/06 08:56:09;;;;;;;12.07;5.63;;;;;;;21.53;75.33;101355.44;5062139;28;20085;-53
2022/09/06 08:59:07;;;;;;;16.48;5.70;;;;;;;21.60;74.41;101358.53;5032723;28;20040;-52
2022/09/06 09:01:58;;;;;;;27.65;7.35;;;;;;;21.66;73.07;101357.19;5066580;28;20510;-56
2022/09/06 09:04:28;;;;;;;21.05;6.10;;;;;;;21.74;72.30;101352.78;5060624;28;20056;-53
2022/09/06 09:07:12;;;;;;;11.55;4.40;;;;;;;21.77;71.84;101354.06;5062399;28;20049;-54
2022/09/06 09:09:40;;;;;;;8.52;3.80;;;;;;;21.81;71.76;101358.63;5071290;28;20048;-54
2022/09/06 09:12:10;;;;;;;6.47;3.70;;;;;;;21.86;71.46;101363.19;5062149;28;20414;-54
2022/09/06 09:14:39;;;;;;;13.30;4.85;;;;;;;21.92;71.37;101375.72;5065611;28;20041;-52
2022/09/06 09:17:20;;;;;;;6.78;3.55;;;;;;;21.96;70.46;101357.28;5065685;28;20032;-55
2022/09/06 09:19:48;;;;;;;6.70;3.40;;;;;;;21.98;70.17;101357.75;5058625;28;20056;-54
2022/09/06 09:22:18;;;;;;;5.72;3.25;;;;;;;22.00;70.07;101361.00;5050036;28;20087;-54
2022/09/06 09:24:46;;;;;;;10.27;3.55;;;;;;;22.01;70.55;101354.31;5067146;28;20048;-54
2022/09/06 09:27:19;;;;;;;7.80;3.08;;;;;;;22.03;70.73;101349.25;5058259;28;20049;-55
2022/09/06 09:29:52;;;;;;;8.95;3.85;;;;;;;22.06;71.32;101347.78;5066613;28;20044;-55
2022/09/06 09:32:44;;;;;;;11.38;4.07;;;;;;;22.10;71.19;101343.16;5061218;28;20456;-54
2022/09/06 09:35:35;;;;;;;5.70;3.00;;;;;;;22.12;71.28;101352.78;5033725;28;20957;-56
2022/09/06 09:38:06;;;;;;;6.25;3.10;;;;;;;22.18;70.59;101350.66;5071797;28;20486;-57
2022/09/06 09:40:41;;;;;;;5.05;2.92;;;;;;;22.23;70.25;101344.13;5070945;28;20066;-58
2022/09/06 09:43:23;;;;;;;6.88;3.22;;;;;;;22.26;70.42;101346.22;5054457;28;20040;-52
2022/09/06 09:46:23;;;;;;;6.85;2.97;;;;;;;22.28;70.47;101349.50;5062420;28;20410;-59
2022/09/06 09:49:12;;;;;;;5.03;2.83;;;;;;;22.33;70.47;101352.88;5068239;28;20040;-53
2022/09/06 09:51:46;;;;;;;6.63;2.88;;;;;;;22.37;70.57;101355.81;5058678;28;20053;-53
2022/09/06 09:54:29;;;;;;;6.32;2.92;;;;;;;22.41;70.53;101353.97;5080724;28;20052;-54
2022/09/06 09:56:57;;;;;;;5.22;2.70;;;;;;;22.46;70.63;101356.56;5062153;28;20094;-53
2022/09/06 09:59:26;;;;;;;6.68;3.00;;;;;;;22.49;70.75;101361.47;5066253;28;20044;-54
2022/09/06 10:01:56;;;;;;;5.40;3.05;;;;;;;22.50;69.87;101357.53;5070297;28;20048;-53
2022/09/06 10:04:37;;;;;;;7.18;3.17;;;;;;;22.52;69.90;101349.66;5061011;28;20056;-52
2022/09/06 10:07:22;;;;;;;18.65;7.22;;;;;;;22.57;70.08;101353.41;5066202;28;20052;-55
2022/09/06 10:10:05;;;;;;;10.07;4.82;;;;;;;22.59;69.75;101349.16;5058319;28;20548;-53
2022/09/06 10:12:37;;;;;;;9.95;3.83;;;;;;;22.64;69.47;101356.47;5065917;28;20044;-55
2022/09/06 10:15:07;;;;;;;10.90;4.00;;;;;;;22.68;69.97;101347.13;5069656;28;20037;-55
2022/09/06 10:17:37;;;;;;;8.32;3.75;;;;;;;22.75;69.74;101344.63;5053901;28;20048;-54
2022/09/06 10:20:09;;;;;;;7.85;3.42;;;;;;;22.79;69.00;101344.75;5069622;28;20056;-61
2022/09/06 10:22:49;;;;;;;9.27;3.60;;;;;;;22.80;68.85;101349.16;5061271;28;20041;-56
2022/09/06 10:25:40;;;;;;;12.63;4.68;;;;;;;22.82;68.83;101352.41;4360876;28;10000216;-53
2022/09/06 10:28:12;;;;;;;;;;;;;;;22.84;68.24;101349.28;5064211;28;20143;-53
2022/09/06 10:30:50;;;;;;;7.32;3.47;;;;;;;22.90;68.29;101359.06;5070497;28;20390;-53
2022/09/06 10:33:25;;;;;;;8.90;4.53;;;;;;;22.93;68.58;101358.38;5055942;28;20041;-55
2022/09/06 10:35:56;;;;;;;7.43;3.33;;;;;;;22.97;68.89;101362.91;5067442;28;20429;-53
2022/09/06 10:38:37;;;;;;;8.38;3.92;;;;;;;23.04;68.53;101367.13;5048804;28;20040;-55
2022/09/06 10:41:42;;;;;;;8.38;3.08;;;;;;;23.06;68.35;101359.28;5058815;28;20048;-57
2022/09/06 10:44:17;;;;;;;4.18;2.78;;;;;;;23.08;67.93;101360.56;5066385;28;20044;-57
2022/09/06 10:46:45;;;;;;;6.45;3.22;;;;;;;23.10;67.50;101357.44;5062752;28;20049;-53
2022/09/06 10:49:17;;;;;;;6.55;2.90;;;;;;;23.12;67.56;101355.16;5051720;28;20044;-55
2022/09/06 10:51:57;;;;;;;6.30;3.05;;;;;;;23.12;67.22;101350.41;5054283;28;20056;-53
2022/09/06 10:54:25;;;;;;;7.22;2.88;;;;;;;23.16;67.12;101339.38;5055052;28;20048;-55
2022/09/06 10:56:57;;;;;;;8.18;2.92;;;;;;;23.21;67.00;101343.94;5065509;28;20044;-52
2022/09/06 10:59:28;;;;;;;7.88;3.10;;;;;;;23.26;67.23;101347.34;5048269;28;20048;-51
2022/09/06 11:02:08;;;;;;;7.90;3.38;;;;;;;23.29;67.05;101338.28;5062375;28;20052;-55
2022/09/06 11:04:41;;;;;;;5.60;3.10;;;;;;;23.33;67.15;101344.81;5050084;28;20057;-54
2022/09/06 11:07:36;;;;;;;7.90;3.25;;;;;;;23.38;66.70;101349.34;5058035;28;20089;-56
2022/09/06 11:10:13;;;;;;;6.70;3.25;;;;;;;23.39;66.87;101348.97;5053973;28;20101;-55
2022/09/06 11:12:56;;;;;;;8.93;3.47;;;;;;;23.42;66.75;101357.81;5069373;28;20032;-56
2022/09/06 11:15:26;;;;;;;7.13;3.40;;;;;;;23.41;66.66;101345.88;5063217;28;20044;-55
2022/09/06 11:18:06;;;;;;;8.43;3.55;;;;;;;23.45;66.63;101346.00;5083967;28;20510;-55
2022/09/06 11:20:43;;;;;;;7.00;3.22;;;;;;;23.47;66.74;101347.28;5062723;28;20124;-53
2022/09/06 11:23:33;;;;;;;7.88;3.17;;;;;;;23.51;66.64;101344.63;5065202;28;20041;-54
2022/09/06 11:26:16;;;;;;;6.63;3.30;;;;;;;23.56;66.35;101356.34;5061790;28;20045;-51
2022/09/06 11:28:52;;;;;;;9.10;3.95;;;;;;;23.61;65.82;101358.91;5072430;28;20041;-52
2022/09/06 11:31:30;;;;;;;7.10;3.30;;;;;;;23.65;66.04;101364.59;5067641;28;20041;-50
2022/09/06 11:34:30;;;;;;;6.43;3.28;;;;;;;23.65;66.17;101364.59;5057841;28;20116;-53
2022/09/06 11:37:00;;;;;;;7.35;3.22;;;;;;;23.64;65.75;101371.31;5065496;28;20040;-52
2022/09/06 11:39:39;;;;;;;8.55;3.40;;;;;;;23.64;65.28;101376.06;5063171;28;20041;-50
2022/09/06 11:42:44;;;;;;;7.45;3.63;;;;;;;23.66;65.69;101380.13;5058794;28;20459;-53
2022/09/06 11:45:21;;;;;;;6.70;3.42;;;;;;;23.68;65.78;101383.38;5065688;28;20119;-52
2022/09/06 11:47:53;;;;;;;9.18;4.28;;;;;;;23.73;66.27;101385.13;5072485;28;20044;-52
2022/09/06 11:50:20;;;;;;;19.65;4.78;;;;;;;23.79;65.08;101381.81;5074875;28;20391;-51